createdAt,value
2022-10-18T00:00:33.690Z,3.30
2022-10-18T00:01:33.705Z,3.30
2022-10-18T00:02:33.760Z,3.10
2022-10-18T00:03:33.717Z,3.10
2022-10-18T00:04:33.643Z,3.20
2022-10-18T00:05:33.642Z,3.20
2022-10-18T00:06:33.644Z,3.20
2022-10-18T00:07:33.796Z,3.20
2022-10-18T00:08:33.623Z,3.20
2022-10-18T00:09:33.615Z,3.30
2022-10-18T00:10:33.593Z,3.20
2022-10-18T00:11:33.596Z,3.20
2022-10-18T00:12:33.599Z,3.20
2022-10-18T00:13:33.574Z,3.00
2022-10-18T00:14:33.553Z,3.00
2022-10-18T00:15:33.554Z,3.10
2022-10-18T00:16:33.554Z,2.90
2022-10-18T00:17:33.777Z,3.00
2022-10-18T00:18:33.513Z,2.90
2022-10-18T00:19:33.491Z,2.70
2022-10-18T00:20:33.471Z,2.80
2022-10-18T00:21:33.521Z,2.90
2022-10-18T00:22:33.679Z,2.70
2022-10-18T00:23:33.451Z,2.90
2022-10-18T00:24:33.443Z,2.90
2022-10-18T00:25:40.948Z,3.00
2022-10-18T00:26:33.415Z,3.10
2022-10-18T00:27:36.099Z,3.10
2022-10-18T00:28:33.530Z,3.20
2022-10-18T00:29:33.410Z,3.20
2022-10-18T00:30:33.365Z,3.10
2022-10-18T00:31:33.410Z,3.10
2022-10-18T00:32:33.796Z,3.00
2022-10-18T00:33:33.353Z,3.20
2022-10-18T00:34:33.360Z,3.00
2022-10-18T00:35:33.316Z,3.10
2022-10-18T00:36:33.316Z,3.00
2022-10-18T00:37:33.316Z,2.80
2022-10-18T00:38:33.288Z,2.90
2022-10-18T00:39:33.298Z,2.90
2022-10-18T00:40:33.298Z,3.00
2022-10-18T00:41:33.388Z,3.10
2022-10-18T00:42:33.623Z,3.10
2022-10-18T00:43:33.328Z,3.00
2022-10-18T00:44:33.239Z,3.10
2022-10-18T00:45:33.249Z,3.20
2022-10-18T00:46:33.237Z,3.20
2022-10-18T00:47:33.186Z,3.20
2022-10-18T00:48:33.216Z,3.50
2022-10-18T00:49:33.153Z,3.60
2022-10-18T00:50:33.168Z,3.70
2022-10-18T00:51:33.187Z,3.60
2022-10-18T00:52:33.517Z,3.40
2022-10-18T00:53:33.126Z,3.40
2022-10-18T00:54:33.135Z,3.50
2022-10-18T00:55:33.118Z,3.10
2022-10-18T00:56:33.111Z,3.30
2022-10-18T00:57:33.104Z,3.40
2022-10-18T00:58:33.093Z,3.30
2022-10-18T00:59:33.067Z,3.40
2022-10-18T01:00:33.050Z,3.30
2022-10-18T01:01:33.079Z,3.30
2022-10-18T01:02:33.269Z,3.30
2022-10-18T01:03:33.034Z,3.40
2022-10-18T01:04:33.026Z,3.50
2022-10-18T01:05:33.006Z,3.50
2022-10-18T01:06:33.038Z,3.70
2022-10-18T01:07:33.170Z,3.80
2022-10-18T01:08:32.984Z,3.80
2022-10-18T01:09:32.984Z,3.60
2022-10-18T01:10:32.940Z,3.80
2022-10-18T01:11:32.942Z,3.70
2022-10-18T01:12:33.002Z,3.50
2022-10-18T01:13:32.919Z,3.50
2022-10-18T01:14:32.916Z,3.50
2022-10-18T01:15:32.909Z,3.30
2022-10-18T01:16:32.872Z,3.40
2022-10-18T01:17:33.205Z,3.30
2022-10-18T01:18:32.863Z,3.60
2022-10-18T01:19:32.841Z,3.40
2022-10-18T01:20:32.826Z,3.40
2022-10-18T01:21:32.837Z,3.40
2022-10-18T01:22:32.812Z,3.70
2022-10-18T01:23:32.826Z,3.50
2022-10-18T01:24:32.809Z,3.80
2022-10-18T01:25:32.784Z,3.60
2022-10-18T01:26:32.775Z,3.70
2022-10-18T01:27:32.932Z,3.50
2022-10-18T01:28:32.796Z,3.60
2022-10-18T01:29:32.750Z,3.60
2022-10-18T01:30:32.755Z,3.30
2022-10-18T01:31:32.731Z,3.40
2022-10-18T01:32:32.729Z,3.40
2022-10-18T01:33:33.424Z,3.30
2022-10-18T01:34:32.700Z,3.20
2022-10-18T01:35:32.695Z,3.40
2022-10-18T01:36:32.683Z,3.30
2022-10-18T01:37:33.030Z,3.30
2022-10-18T01:38:32.667Z,3.20
2022-10-18T01:39:32.647Z,3.10
2022-10-18T01:40:32.669Z,3.10
2022-10-18T01:41:32.595Z,3.40
2022-10-18T01:42:32.601Z,3.20
2022-10-18T01:43:32.613Z,3.50
2022-10-18T01:44:32.585Z,3.40
2022-10-18T01:45:32.563Z,3.30
2022-10-18T01:46:32.589Z,3.30
2022-10-18T01:47:32.754Z,3.20
2022-10-18T01:48:32.538Z,3.30
2022-10-18T01:49:32.523Z,3.20
2022-10-18T01:50:32.554Z,3.00
2022-10-18T01:51:32.503Z,3.20
2022-10-18T01:52:32.868Z,3.00
2022-10-18T01:53:32.491Z,3.00
2022-10-18T01:54:39.965Z,3.10
2022-10-18T01:55:32.460Z,2.80
2022-10-18T01:56:32.460Z,3.00
2022-10-18T01:57:35.087Z,2.90
2022-10-18T01:58:32.426Z,3.00
2022-10-18T01:59:32.460Z,2.90
2022-10-18T02:00:32.406Z,2.90
2022-10-18T02:01:32.422Z,3.20
2022-10-18T02:02:32.773Z,3.30
2022-10-18T02:03:32.386Z,3.30
2022-10-18T02:04:32.590Z,3.40
2022-10-18T02:05:32.372Z,3.20
2022-10-18T02:06:32.352Z,3.10
2022-10-18T02:07:32.339Z,3.30
2022-10-18T02:08:32.340Z,3.20
2022-10-18T02:09:32.297Z,2.90
2022-10-18T02:10:32.321Z,3.10
2022-10-18T02:11:32.278Z,2.80
2022-10-18T02:12:32.570Z,3.00
2022-10-18T02:13:32.306Z,3.00
2022-10-18T02:14:32.246Z,3.00
2022-10-18T02:15:32.255Z,3.10
2022-10-18T02:16:32.278Z,3.20
2022-10-18T02:17:32.229Z,3.30
2022-10-18T02:18:32.223Z,3.10
2022-10-18T02:19:32.206Z,3.00
2022-10-18T02:20:32.241Z,3.00
2022-10-18T02:21:32.204Z,3.00
2022-10-18T02:22:32.454Z,3.10
2022-10-18T02:23:32.338Z,3.10
2022-10-18T02:24:32.163Z,3.10
2022-10-18T02:25:32.276Z,3.30
2022-10-18T02:26:32.168Z,3.20
2022-10-18T02:27:32.117Z,3.10
2022-10-18T02:28:32.112Z,3.00
2022-10-18T02:29:32.111Z,3.20
2022-10-18T02:30:32.232Z,3.10
2022-10-18T02:31:32.073Z,2.90
2022-10-18T02:32:32.504Z,2.90
2022-10-18T02:33:32.086Z,2.90
2022-10-18T02:34:32.061Z,3.00
2022-10-18T02:35:32.080Z,2.80
2022-10-18T02:36:32.071Z,2.80
2022-10-18T02:37:32.039Z,3.20
2022-10-18T02:38:32.004Z,3.10
2022-10-18T02:39:32.002Z,3.20
2022-10-18T02:40:32.022Z,3.20
2022-10-18T02:41:31.987Z,3.30
2022-10-18T02:42:32.073Z,3.20
2022-10-18T02:43:32.017Z,3.10
2022-10-18T02:44:31.951Z,3.00
2022-10-18T02:45:31.916Z,2.80
2022-10-18T02:46:31.938Z,2.90
2022-10-18T02:47:32.159Z,2.90
2022-10-18T02:48:31.895Z,3.00
2022-10-18T02:49:31.945Z,3.10
2022-10-18T02:50:31.865Z,3.20
2022-10-18T02:51:31.871Z,3.10
2022-10-18T02:52:31.870Z,3.20
2022-10-18T02:53:31.855Z,3.30
2022-10-18T02:54:31.823Z,3.20
2022-10-18T02:55:31.820Z,3.00
2022-10-18T02:56:31.882Z,2.80
2022-10-18T02:57:32.044Z,3.10
2022-10-18T02:58:31.813Z,3.10
2022-10-18T02:59:31.775Z,3.10
2022-10-18T03:00:31.774Z,3.20
2022-10-18T03:01:31.787Z,3.00
2022-10-18T03:02:31.755Z,3.20
2022-10-18T03:03:31.726Z,3.10
2022-10-18T03:04:31.752Z,3.10
2022-10-18T03:05:31.747Z,3.10
2022-10-18T03:06:31.695Z,2.90
2022-10-18T03:07:31.917Z,2.50
2022-10-18T03:08:31.683Z,2.80
2022-10-18T03:09:31.655Z,2.80
2022-10-18T03:10:31.670Z,2.90
2022-10-18T03:11:31.658Z,2.70
2022-10-18T03:12:31.669Z,2.80
2022-10-18T03:13:31.649Z,2.80
2022-10-18T03:14:31.632Z,2.70
2022-10-18T03:15:31.611Z,2.80
2022-10-18T03:16:31.587Z,2.90
2022-10-18T03:17:31.748Z,3.00
2022-10-18T03:18:31.577Z,3.00
2022-10-18T03:19:31.559Z,3.00
2022-10-18T03:20:31.566Z,3.10
2022-10-18T03:21:31.525Z,2.90
2022-10-18T03:22:31.609Z,3.00
2022-10-18T03:23:31.516Z,2.90
2022-10-18T03:24:31.517Z,3.10
2022-10-18T03:25:31.527Z,2.90
2022-10-18T03:26:31.515Z,2.90
2022-10-18T03:27:31.786Z,2.70
2022-10-18T03:28:31.504Z,2.70
2022-10-18T03:29:31.503Z,2.90
2022-10-18T03:30:31.445Z,2.90
2022-10-18T03:32:31.667Z,2.80
2022-10-18T03:33:31.419Z,2.90
2022-10-18T03:34:31.391Z,2.80
2022-10-18T03:35:31.401Z,2.80
2022-10-18T03:36:31.374Z,2.80
2022-10-18T03:37:31.360Z,2.90
2022-10-18T03:38:31.372Z,2.90
2022-10-18T03:39:31.392Z,2.90
2022-10-18T03:41:31.343Z,2.90
2022-10-18T03:42:31.707Z,3.00
2022-10-18T03:43:31.306Z,2.80
2022-10-18T03:44:31.309Z,3.10
2022-10-18T03:45:31.659Z,3.00
2022-10-18T03:46:31.262Z,3.10
2022-10-18T03:47:31.241Z,2.90
2022-10-18T03:48:31.295Z,2.90
2022-10-18T03:49:31.230Z,2.70
2022-10-18T03:50:31.234Z,2.80
2022-10-18T03:51:31.210Z,2.80
2022-10-18T03:52:31.530Z,2.90
2022-10-18T03:53:31.203Z,3.10
2022-10-18T03:54:31.161Z,3.00
2022-10-18T03:55:31.183Z,3.10
2022-10-18T03:56:31.189Z,3.30
2022-10-18T03:57:31.137Z,3.60
2022-10-18T03:58:31.243Z,3.60
2022-10-18T03:59:31.134Z,3.60
2022-10-18T04:00:31.111Z,3.70
2022-10-18T04:01:31.278Z,3.60
2022-10-18T04:02:31.427Z,3.60
2022-10-18T04:03:31.086Z,3.40
2022-10-18T04:04:31.094Z,3.50
2022-10-18T04:05:31.066Z,3.30
2022-10-18T04:06:31.043Z,3.40
2022-10-18T04:07:31.135Z,3.20
2022-10-18T04:08:31.033Z,3.30
2022-10-18T04:09:30.999Z,3.20
2022-10-18T04:10:30.979Z,3.10
2022-10-18T04:11:31.051Z,3.30
2022-10-18T04:12:31.179Z,3.20
2022-10-18T04:13:31.052Z,3.30
2022-10-18T04:14:31.365Z,3.30
2022-10-18T04:15:30.972Z,3.30
2022-10-18T04:16:30.977Z,3.20
2022-10-18T04:17:31.232Z,3.20
2022-10-18T04:18:30.911Z,3.20
2022-10-18T04:19:30.908Z,3.40
2022-10-18T04:20:30.868Z,3.30
2022-10-18T04:21:30.880Z,3.30
2022-10-18T04:22:30.931Z,3.20
2022-10-18T04:23:32.739Z,3.30
2022-10-18T04:24:30.877Z,3.10
2022-10-18T04:25:30.879Z,3.10
2022-10-18T04:26:30.821Z,3.30
2022-10-18T04:27:30.937Z,3.20
2022-10-18T04:28:30.868Z,3.10
2022-10-18T04:29:30.810Z,3.10
2022-10-18T04:30:30.802Z,3.10
2022-10-18T04:31:30.799Z,3.20
2022-10-18T04:32:31.050Z,3.30
2022-10-18T04:33:30.741Z,3.20
2022-10-18T04:34:31.796Z,3.20
2022-10-18T04:35:30.824Z,3.30
2022-10-18T04:36:30.698Z,3.20
2022-10-18T04:37:31.084Z,3.40
2022-10-18T04:38:30.691Z,3.50
2022-10-18T04:39:30.682Z,3.50
2022-10-18T04:40:30.683Z,3.30
2022-10-18T04:41:30.663Z,3.10
2022-10-18T04:42:30.653Z,3.20
2022-10-18T04:43:30.650Z,3.20
2022-10-18T04:44:30.630Z,3.10
2022-10-18T04:45:30.614Z,3.10
2022-10-18T04:46:30.610Z,2.90
2022-10-18T04:47:31.186Z,3.10
2022-10-18T04:48:30.624Z,3.20
2022-10-18T04:49:30.618Z,3.20
2022-10-18T04:50:30.560Z,3.20
2022-10-18T04:51:30.570Z,3.20
2022-10-18T04:52:30.558Z,3.30
2022-10-18T04:53:30.540Z,3.30
2022-10-18T04:54:30.572Z,3.40
2022-10-18T04:55:30.508Z,3.50
2022-10-18T04:56:30.513Z,3.60
2022-10-18T04:57:30.843Z,3.50
2022-10-18T04:58:30.471Z,3.30
2022-10-18T04:59:30.491Z,3.30
2022-10-18T05:00:30.467Z,3.30
2022-10-18T05:01:30.490Z,3.10
2022-10-18T05:02:30.759Z,3.20
2022-10-18T05:03:30.429Z,3.10
2022-10-18T05:04:30.408Z,3.10
2022-10-18T05:05:49.970Z,3.10
2022-10-18T05:06:31.386Z,3.20
2022-10-18T05:07:30.397Z,3.40
2022-10-18T05:08:30.365Z,3.50
2022-10-18T05:09:30.369Z,3.60
2022-10-18T05:10:30.369Z,3.50
2022-10-18T05:11:30.338Z,3.60
2022-10-18T05:12:30.613Z,3.60
2022-10-18T05:13:30.360Z,3.80
2022-10-18T05:14:30.284Z,3.60
2022-10-18T05:15:30.338Z,3.50
2022-10-18T05:16:30.317Z,3.70
2022-10-18T05:17:30.314Z,3.40
2022-10-18T05:18:30.322Z,3.10
2022-10-18T05:19:30.253Z,3.10
2022-10-18T05:20:30.231Z,3.10
2022-10-18T05:21:30.232Z,3.00
2022-10-18T05:22:30.431Z,3.00
2022-10-18T05:23:30.231Z,3.10
2022-10-18T05:24:30.183Z,3.20
2022-10-18T05:25:30.203Z,3.20
2022-10-18T05:26:30.155Z,3.20
2022-10-18T05:27:30.161Z,3.30
2022-10-18T05:28:45.663Z,3.20
2022-10-18T05:29:31.157Z,3.50
2022-10-18T05:30:30.150Z,3.10
2022-10-18T05:31:30.113Z,3.20
2022-10-18T05:32:30.386Z,3.10
2022-10-18T05:33:30.141Z,3.10
2022-10-18T05:34:30.104Z,3.00
2022-10-18T05:35:30.078Z,3.00
2022-10-18T05:36:30.063Z,3.00
2022-10-18T05:37:30.062Z,2.90
2022-10-18T05:38:30.089Z,3.00
2022-10-18T05:39:30.048Z,3.20
2022-10-18T05:40:30.043Z,3.20
2022-10-18T05:41:30.025Z,3.00
2022-10-18T05:42:30.314Z,3.20
2022-10-18T05:43:29.984Z,3.40
2022-10-18T05:44:30.014Z,3.40
2022-10-18T05:45:29.982Z,3.30
2022-10-18T05:46:30.027Z,3.10
2022-10-18T05:47:29.991Z,3.50
2022-10-18T05:48:29.923Z,3.50
2022-10-18T05:49:29.929Z,3.50
2022-10-18T05:50:29.902Z,3.40
2022-10-18T05:51:29.932Z,3.40
2022-10-18T05:52:30.162Z,3.30
2022-10-18T05:53:38.117Z,3.00
2022-10-18T05:54:30.955Z,3.00
2022-10-18T05:55:29.857Z,3.00
2022-10-18T05:56:29.900Z,2.90
2022-10-18T05:57:30.254Z,3.10
2022-10-18T05:58:29.855Z,2.90
2022-10-18T05:59:29.846Z,3.10
2022-10-18T06:00:29.828Z,3.00
2022-10-18T06:01:29.797Z,3.00
2022-10-18T06:02:29.895Z,3.10
2022-10-18T06:03:29.801Z,3.20
2022-10-18T06:04:29.764Z,3.00
2022-10-18T06:05:29.951Z,3.10
2022-10-18T06:06:29.759Z,3.10
2022-10-18T06:07:29.947Z,2.90
2022-10-18T06:08:29.743Z,3.20
2022-10-18T06:09:29.739Z,3.10
2022-10-18T06:10:29.692Z,3.20
2022-10-18T06:11:29.681Z,3.30
2022-10-18T06:12:29.719Z,3.30
2022-10-18T06:13:31.255Z,3.40
2022-10-18T06:14:29.656Z,3.10
2022-10-18T06:15:29.667Z,3.50
2022-10-18T06:16:32.460Z,3.40
2022-10-18T06:17:31.820Z,3.10
2022-10-18T06:18:29.632Z,3.40
2022-10-18T06:19:29.599Z,3.60
2022-10-18T06:20:29.582Z,3.50
2022-10-18T06:21:29.595Z,3.70
2022-10-18T06:22:29.657Z,3.50
2022-10-18T06:23:29.574Z,3.50
2022-10-18T06:24:29.561Z,3.90
2022-10-18T06:25:29.534Z,3.70
2022-10-18T06:26:29.525Z,3.60
2022-10-18T06:27:29.888Z,3.70
2022-10-18T06:28:29.555Z,3.80
2022-10-18T06:29:29.498Z,3.40
2022-10-18T06:30:29.494Z,3.50
2022-10-18T06:31:29.495Z,3.50
2022-10-18T06:32:29.514Z,3.40
2022-10-18T06:33:29.453Z,3.10
2022-10-18T06:34:29.455Z,3.20
2022-10-18T06:35:29.450Z,3.20
2022-10-18T06:36:29.441Z,3.00
2022-10-18T06:37:29.552Z,3.10
2022-10-18T06:38:29.401Z,3.10
2022-10-18T06:39:29.467Z,3.10
2022-10-18T06:40:29.383Z,2.90
2022-10-18T06:41:29.359Z,2.90
2022-10-18T06:42:29.488Z,2.90
2022-10-18T06:43:29.357Z,2.70
2022-10-18T06:44:29.349Z,2.80
2022-10-18T06:45:29.357Z,2.70
2022-10-18T06:46:29.318Z,2.70
2022-10-18T06:47:29.315Z,2.60
2022-10-18T06:48:29.311Z,2.60
2022-10-18T06:49:29.351Z,2.50
2022-10-18T06:50:29.259Z,2.70
2022-10-18T06:51:29.272Z,2.80
2022-10-18T06:52:29.419Z,2.90
2022-10-18T06:53:29.282Z,2.80
2022-10-18T06:54:29.232Z,2.80
2022-10-18T06:55:29.270Z,3.00
2022-10-18T06:56:29.213Z,3.20
2022-10-18T06:57:29.235Z,3.30
2022-10-18T06:58:29.200Z,3.30
2022-10-18T06:59:31.228Z,3.00
2022-10-18T07:00:29.229Z,3.00
2022-10-18T07:01:29.255Z,3.10
2022-10-18T07:02:29.352Z,2.90
2022-10-18T07:03:29.144Z,2.70
2022-10-18T07:04:29.140Z,2.80
2022-10-18T07:05:29.220Z,2.80
2022-10-18T07:06:29.111Z,2.70
2022-10-18T07:07:29.289Z,2.70
2022-10-18T07:08:29.146Z,2.60
2022-10-18T07:09:29.071Z,2.60
2022-10-18T07:10:29.052Z,2.70
2022-10-18T07:11:29.064Z,2.80
2022-10-18T07:12:29.031Z,2.80
2022-10-18T07:13:32.572Z,2.80
2022-10-18T07:14:29.352Z,2.70
2022-10-18T07:15:29.063Z,2.90
2022-10-18T07:16:28.976Z,2.80
2022-10-18T07:17:29.499Z,2.70
2022-10-18T07:18:28.997Z,2.70
2022-10-18T07:19:28.972Z,2.70
2022-10-18T07:20:28.998Z,2.80
2022-10-18T07:21:28.950Z,2.70
2022-10-18T07:22:30.416Z,2.60
2022-10-18T07:23:28.912Z,2.70
2022-10-18T07:24:28.932Z,2.60
2022-10-18T07:25:30.605Z,2.70
2022-10-18T07:26:28.889Z,2.80
2022-10-18T07:27:28.986Z,3.10
2022-10-18T07:28:28.938Z,2.80
2022-10-18T07:29:29.096Z,2.90
2022-10-18T07:30:28.874Z,3.00
2022-10-18T07:31:28.893Z,2.60
2022-10-18T07:32:28.806Z,2.80
2022-10-18T07:33:28.842Z,2.90
2022-10-18T07:34:28.794Z,2.90
2022-10-18T07:35:28.799Z,2.90
2022-10-18T07:36:28.797Z,2.90
2022-10-18T07:37:30.197Z,2.90
2022-10-18T07:38:28.750Z,3.00
2022-10-18T07:39:28.777Z,3.00
2022-10-18T07:40:28.733Z,3.10
2022-10-18T07:41:28.713Z,3.00
2022-10-18T07:42:28.730Z,2.80
2022-10-18T07:43:28.698Z,3.00
2022-10-18T07:44:28.698Z,3.10
2022-10-18T07:45:28.747Z,2.90
2022-10-18T07:46:28.646Z,2.90
2022-10-18T07:47:30.158Z,3.10
2022-10-18T07:48:28.636Z,2.90
2022-10-18T07:49:28.638Z,2.90
2022-10-18T07:50:28.595Z,2.80
2022-10-18T07:51:28.605Z,2.60
2022-10-18T07:52:28.616Z,2.70
2022-10-18T07:53:28.599Z,2.80
2022-10-18T07:54:28.719Z,2.70
2022-10-18T07:55:28.607Z,2.80
2022-10-18T07:56:28.555Z,2.70
2022-10-18T07:57:28.529Z,2.70
2022-10-18T07:58:28.579Z,2.70
2022-10-18T07:59:28.527Z,2.90
2022-10-18T08:00:28.518Z,3.00
2022-10-18T08:01:28.506Z,3.00
2022-10-18T08:02:28.493Z,3.10
2022-10-18T08:03:28.564Z,3.20
2022-10-18T08:04:28.539Z,3.10
2022-10-18T08:05:28.571Z,3.10
2022-10-18T08:06:28.469Z,3.10
2022-10-18T08:07:28.492Z,3.20
2022-10-18T08:08:28.474Z,2.90
2022-10-18T08:09:28.429Z,3.00
2022-10-18T08:10:28.439Z,2.80
2022-10-18T08:11:28.427Z,3.00
2022-10-18T08:12:28.387Z,3.30
2022-10-18T08:13:28.344Z,3.00
2022-10-18T08:14:28.337Z,3.20
2022-10-18T08:15:28.336Z,3.20
2022-10-18T08:16:28.393Z,3.10
2022-10-18T08:17:28.342Z,3.20
2022-10-18T08:18:28.294Z,3.20
2022-10-18T08:19:28.411Z,3.10
2022-10-18T08:20:31.560Z,3.10
2022-10-18T08:21:28.290Z,2.90
2022-10-18T08:22:28.266Z,2.80
2022-10-18T08:23:28.256Z,3.10
2022-10-18T08:24:28.268Z,3.00
2022-10-18T08:25:28.304Z,3.20
2022-10-18T08:26:28.256Z,3.20
2022-10-18T08:27:28.206Z,3.50
2022-10-18T08:28:28.249Z,3.60
2022-10-18T08:29:31.697Z,3.70
2022-10-18T08:30:28.180Z,3.80
2022-10-18T08:31:28.170Z,3.90
2022-10-18T08:32:28.150Z,3.70
2022-10-18T08:33:28.171Z,3.70
2022-10-18T08:34:28.237Z,3.90
2022-10-18T08:35:28.764Z,3.60
2022-10-18T08:36:28.102Z,3.30
2022-10-18T08:37:28.119Z,3.30
2022-10-18T08:38:28.098Z,3.10
2022-10-18T08:39:28.062Z,3.10
2022-10-18T08:40:28.184Z,2.70
2022-10-18T08:41:28.042Z,2.90
2022-10-18T08:42:28.085Z,2.90
2022-10-18T08:43:28.090Z,3.00
2022-10-18T08:44:28.040Z,2.90
2022-10-18T08:45:41.838Z,3.00
2022-10-18T08:46:28.995Z,3.20
2022-10-18T08:47:27.973Z,3.20
2022-10-18T08:48:27.975Z,3.20
2022-10-18T08:49:27.997Z,3.20
2022-10-18T08:50:27.976Z,3.30
2022-10-18T08:51:28.005Z,3.20
2022-10-18T08:52:27.987Z,3.30
2022-10-18T08:53:27.916Z,3.40
2022-10-18T08:54:27.915Z,3.20
2022-10-18T08:55:28.105Z,3.10
2022-10-18T08:56:27.881Z,3.10
2022-10-18T08:57:27.977Z,3.20
2022-10-18T08:58:27.851Z,3.20
2022-10-18T08:59:27.858Z,3.10
2022-10-18T09:00:27.846Z,3.10
2022-10-18T09:01:27.844Z,3.00
2022-10-18T09:02:28.035Z,2.90
2022-10-18T09:03:27.970Z,3.10
2022-10-18T09:04:27.809Z,3.10
2022-10-18T09:05:27.793Z,3.20
2022-10-18T09:06:27.785Z,3.30
2022-10-18T09:07:27.816Z,3.20
2022-10-18T09:08:27.773Z,3.30
2022-10-18T09:09:27.753Z,3.20
2022-10-18T09:10:27.748Z,3.30
2022-10-18T09:11:27.713Z,3.20
2022-10-18T09:12:27.699Z,3.30
2022-10-18T09:13:27.697Z,3.40
2022-10-18T09:14:27.768Z,3.30
2022-10-18T09:15:27.662Z,3.20
2022-10-18T09:16:27.663Z,3.20
2022-10-18T09:17:27.683Z,3.10
2022-10-18T09:18:27.650Z,3.10
2022-10-18T09:19:27.645Z,3.20
2022-10-18T09:20:27.638Z,3.20
2022-10-18T09:21:27.612Z,3.30
2022-10-18T09:22:27.588Z,3.30
2022-10-18T09:23:27.610Z,3.30
2022-10-18T09:24:27.594Z,3.20
2022-10-18T09:25:27.562Z,3.40
2022-10-18T09:26:27.563Z,3.40
2022-10-18T09:27:27.590Z,3.40
2022-10-18T09:28:27.600Z,3.30
2022-10-18T09:29:27.557Z,3.30
2022-10-18T09:30:27.521Z,3.30
2022-10-18T09:31:27.499Z,3.10
2022-10-18T09:32:27.502Z,3.10
2022-10-18T09:33:27.510Z,3.20
2022-10-18T09:34:27.519Z,3.50
2022-10-18T09:35:27.459Z,3.50
2022-10-18T09:36:27.452Z,3.40
2022-10-18T09:37:27.501Z,3.40
2022-10-18T09:38:27.435Z,3.40
2022-10-18T09:39:27.412Z,3.70
2022-10-18T09:40:27.473Z,3.80
2022-10-18T09:41:27.389Z,3.70
2022-10-18T09:42:27.395Z,3.80
2022-10-18T09:43:27.371Z,3.70
2022-10-18T09:44:27.388Z,3.70
2022-10-18T09:45:27.353Z,3.60
2022-10-18T09:46:27.342Z,3.50
2022-10-18T09:47:27.345Z,3.70
2022-10-18T09:48:27.309Z,3.60
2022-10-18T09:49:27.298Z,3.70
2022-10-18T09:50:27.286Z,3.70
2022-10-18T09:51:27.264Z,3.60
2022-10-18T09:52:27.304Z,3.80
2022-10-18T09:53:27.255Z,3.70
2022-10-18T09:54:27.247Z,3.80
2022-10-18T09:55:27.231Z,3.90
2022-10-18T09:56:27.246Z,4.10
2022-10-18T09:57:27.206Z,4.10
2022-10-18T09:58:27.202Z,4.10
2022-10-18T09:59:27.171Z,4.30
2022-10-18T10:00:27.185Z,4.20
2022-10-18T10:01:27.255Z,4.10
2022-10-18T10:02:27.202Z,3.80
2022-10-18T10:03:27.139Z,4.10
2022-10-18T10:04:27.172Z,4.00
2022-10-18T10:05:27.106Z,3.90
2022-10-18T10:06:27.102Z,3.80
2022-10-18T10:07:29.773Z,3.50
2022-10-18T10:08:28.076Z,3.70
2022-10-18T10:09:27.067Z,3.60
2022-10-18T10:10:27.076Z,3.80
2022-10-18T10:11:27.059Z,3.90
2022-10-18T10:12:27.061Z,4.00
2022-10-18T10:13:27.053Z,4.10
2022-10-18T10:14:27.016Z,4.20
2022-10-18T10:15:29.603Z,4.20
2022-10-18T10:16:28.019Z,4.20
2022-10-18T10:17:26.985Z,4.10
2022-10-18T10:18:26.996Z,3.90
2022-10-18T10:19:26.951Z,3.50
2022-10-18T10:20:26.960Z,3.30
2022-10-18T10:21:26.938Z,3.30
2022-10-18T10:22:27.547Z,3.20
2022-10-18T10:23:26.911Z,3.00
2022-10-18T10:24:30.274Z,3.10
2022-10-18T10:25:26.887Z,3.30
2022-10-18T10:26:26.891Z,3.30
2022-10-18T10:27:26.923Z,3.50
2022-10-18T10:28:26.916Z,3.40
2022-10-18T10:29:43.526Z,3.50
2022-10-18T10:30:27.877Z,3.40
2022-10-18T10:31:26.861Z,3.40
2022-10-18T10:33:27.487Z,3.30
2022-10-18T10:34:26.877Z,3.30
2022-10-18T10:35:35.470Z,3.40
2022-10-18T10:36:27.787Z,3.30
2022-10-18T10:37:26.781Z,3.30
2022-10-18T10:38:26.763Z,3.30
2022-10-18T10:39:26.758Z,3.00
2022-10-18T10:40:28.710Z,3.20
2022-10-18T10:41:26.721Z,3.10
2022-10-18T10:42:26.739Z,3.10
2022-10-18T10:43:42.040Z,3.10
2022-10-18T10:44:27.697Z,3.10
2022-10-18T10:45:26.689Z,3.30
2022-10-18T10:46:26.681Z,3.20
2022-10-18T10:47:26.658Z,3.40
2022-10-18T10:48:31.045Z,3.70
2022-10-18T10:49:39.716Z,3.70
2022-10-18T10:50:27.683Z,4.00
2022-10-18T10:51:27.045Z,4.10
2022-10-18T10:52:28.134Z,4.20
2022-10-18T10:53:26.589Z,4.20
2022-10-18T10:54:26.605Z,4.30
2022-10-18T10:55:34.859Z,4.20
2022-10-18T10:56:27.551Z,4.10
2022-10-18T10:57:26.552Z,3.90
2022-10-18T10:58:26.528Z,4.10
2022-10-18T10:59:26.541Z,4.10
2022-10-18T11:00:26.525Z,4.10
2022-10-18T11:01:26.529Z,4.30
2022-10-18T11:02:26.493Z,4.00
2022-10-18T11:03:29.588Z,4.30
2022-10-18T11:04:26.492Z,4.00
2022-10-18T11:05:26.459Z,3.90
2022-10-18T11:06:26.456Z,4.00
2022-10-18T11:07:26.449Z,4.00
2022-10-18T11:08:26.448Z,4.20
2022-10-18T11:09:26.424Z,4.10
2022-10-18T11:10:26.418Z,4.20
2022-10-18T11:11:26.399Z,4.10
2022-10-18T11:12:26.389Z,4.10
2022-10-18T11:13:26.379Z,3.80
2022-10-18T11:14:27.248Z,3.50
2022-10-18T11:15:26.358Z,3.60
2022-10-18T11:16:26.335Z,3.50
2022-10-18T11:17:26.326Z,3.40
2022-10-18T11:18:26.334Z,3.30
2022-10-18T11:19:28.391Z,3.10
2022-10-18T11:20:26.307Z,3.20
2022-10-18T11:21:26.298Z,3.00
2022-10-18T11:22:26.283Z,3.20
2022-10-18T11:23:26.267Z,3.00
2022-10-18T11:24:26.254Z,3.10
2022-10-18T11:25:26.256Z,3.00
2022-10-18T11:26:26.295Z,3.10
2022-10-18T11:27:26.237Z,2.90
2022-10-18T11:28:26.252Z,3.00
2022-10-18T11:29:26.229Z,3.10
2022-10-18T11:30:26.213Z,3.10
2022-10-18T11:31:26.175Z,3.10
2022-10-18T11:32:26.169Z,2.90
2022-10-18T11:33:44.053Z,2.90
2022-10-18T11:34:27.140Z,2.70
2022-10-18T11:35:26.127Z,2.90
2022-10-18T11:36:26.139Z,2.90
2022-10-18T11:37:29.969Z,3.00
2022-10-18T11:38:27.098Z,3.00
2022-10-18T11:39:26.075Z,3.10
2022-10-18T11:40:26.087Z,3.30
2022-10-18T11:41:26.064Z,3.10
2022-10-18T11:42:26.085Z,3.20
2022-10-18T11:43:30.210Z,3.10
2022-10-18T11:44:27.038Z,3.00
2022-10-18T11:45:26.063Z,3.00
2022-10-18T11:46:26.013Z,2.80
2022-10-18T11:47:26.036Z,3.00
2022-10-18T11:48:26.004Z,2.70
2022-10-18T11:49:25.994Z,2.70
2022-10-18T11:50:25.975Z,2.90
2022-10-18T11:51:38.642Z,2.70
2022-10-18T11:52:26.956Z,2.90
2022-10-18T11:53:25.947Z,3.00
2022-10-18T11:54:25.928Z,3.00
2022-10-18T11:55:28.947Z,3.20
2022-10-18T11:56:27.121Z,3.20
2022-10-18T11:57:25.891Z,3.40
2022-10-18T11:58:25.906Z,3.20
2022-10-18T11:59:25.893Z,3.30
2022-10-18T12:00:28.875Z,3.60
2022-10-18T12:01:28.458Z,3.40
2022-10-18T12:02:25.885Z,3.30
2022-10-18T12:03:25.845Z,3.60
2022-10-18T12:04:25.839Z,3.80
2022-10-18T12:05:25.815Z,3.70
2022-10-18T12:06:25.806Z,3.70
2022-10-18T12:07:28.931Z,3.50
2022-10-18T12:08:26.786Z,3.60
2022-10-18T12:09:25.765Z,3.40
2022-10-18T12:10:37.889Z,3.50
2022-10-18T12:11:26.743Z,3.40
2022-10-18T12:12:25.722Z,3.30
2022-10-18T12:13:25.712Z,3.20
2022-10-18T12:14:25.712Z,3.20
2022-10-18T12:15:25.733Z,3.20
2022-10-18T12:16:49.414Z,3.00
2022-10-18T12:17:42.893Z,3.10
2022-10-18T12:18:26.669Z,3.20
2022-10-18T12:19:27.031Z,3.30
2022-10-18T12:20:25.656Z,3.20
2022-10-18T12:21:26.034Z,3.30
2022-10-18T12:22:25.723Z,3.20
2022-10-18T12:23:25.611Z,3.30
2022-10-18T12:24:25.611Z,3.30
2022-10-18T12:25:25.593Z,3.40
2022-10-18T12:26:25.560Z,3.30
2022-10-18T12:27:25.615Z,3.30
2022-10-18T12:28:25.612Z,3.10
2022-10-18T12:29:25.574Z,3.20
2022-10-18T12:30:25.550Z,3.00
2022-10-18T12:31:25.541Z,3.20
2022-10-18T12:32:25.509Z,3.30
2022-10-18T12:33:29.118Z,3.30
2022-10-18T12:34:25.479Z,3.40
2022-10-18T12:35:25.913Z,3.40
2022-10-18T12:36:25.470Z,3.40
2022-10-18T12:37:25.481Z,3.40
2022-10-18T12:38:25.463Z,3.40
2022-10-18T12:39:33.498Z,3.10
2022-10-18T12:40:26.447Z,3.20
2022-10-18T12:41:25.443Z,3.30
2022-10-18T12:42:25.422Z,3.10
2022-10-18T12:43:25.395Z,3.10
2022-10-18T12:44:25.411Z,3.00
2022-10-18T12:45:25.392Z,2.90
2022-10-18T12:46:25.437Z,2.70
2022-10-18T12:47:25.349Z,2.70
2022-10-18T12:48:25.352Z,2.70
2022-10-18T12:49:25.337Z,2.70
2022-10-18T12:50:25.311Z,2.70
2022-10-18T12:51:25.308Z,2.80
2022-10-18T12:52:25.323Z,3.00
2022-10-18T12:53:25.300Z,2.80
2022-10-18T12:54:25.315Z,3.00
2022-10-18T12:55:25.290Z,3.00
2022-10-18T12:56:25.334Z,3.30
2022-10-18T12:57:25.260Z,3.40
2022-10-18T12:58:25.239Z,3.30
2022-10-18T12:59:25.231Z,3.40
2022-10-18T13:00:25.223Z,3.60
2022-10-18T13:01:25.261Z,3.60
2022-10-18T13:02:25.184Z,3.80
2022-10-18T13:03:25.191Z,4.00
2022-10-18T13:04:25.220Z,3.70
2022-10-18T13:05:41.053Z,4.10
2022-10-18T13:06:26.198Z,4.10
2022-10-18T13:07:25.148Z,4.10
2022-10-18T13:08:25.129Z,3.90
2022-10-18T13:09:25.135Z,4.20
2022-10-18T13:10:25.112Z,4.00
2022-10-18T13:11:25.102Z,3.30
2022-10-18T13:12:25.089Z,3.10
2022-10-18T13:13:39.115Z,3.10
2022-10-18T13:14:26.070Z,3.20
2022-10-18T13:15:26.512Z,2.90
2022-10-18T13:16:25.045Z,3.10
2022-10-18T13:17:25.056Z,2.90
2022-10-18T13:18:25.039Z,3.00
2022-10-18T13:19:26.791Z,2.90
2022-10-18T13:20:26.754Z,3.10
2022-10-18T13:21:25.006Z,2.90